PAFSPAMC

Guest
Details From PAFS - NIKOLAI
To PAMC - MC GRATH
Flight Number -
Tags generated
Created
Modified
Stats Distance 34 nm / 64 km
Max Altitude 300 ft / 91 m
Waypoints 3
Social Downloads 0
Likes 0
Share VATSIM

Download

Looking for another format? Having issues loading an existing format? Contact us
Advertisement - Login to hide

Notes

Basic altitude profile: - Ascent Rate: 2500ft/min - Ascent Speed: 250kts - Cruise Altitude: 35000ft - Cruise Speed: 420kts - Descent Rate: 1500ft/min - Descent Speed: 250kts Options: - Use NATs: yes - Use PACOTS: yes - Use low airways: yes - Use high airways: yes

Route

PAFS VTR PAMC

ID Type Via Altitude Latitude Longitude Leg Dist Tot Dist Heading (true) Name
O PAFS APT - 0 ft / 0 m 63.01856˚ -154.35843˚ - 0 nm - NIKOLAI
VTR NDB - 300 ft / 91 m 62.94683˚ -155.55725˚ 32 nm 32 nm 263° / 262° TAKOTNA RIVER NDB
O PAMC APT - 0 ft / 0 m 62.95479˚ -155.60657˚ 1 nm 34 nm 290° / 290° MC GRATH

Altitude Profile

Advertisement - Login to hide

PAFS

Details ICAO PAFS (NIB)
Name NIKOLAI
Region USA (Alaska)
Timezone America/Anchorage (UTC-9.0)
Stats Elevation 441 ft / 134 m (AMSL)
Location 63.018560° -154.358434°
Runways 1
Magnetic Variation 14.843° E

METAR

PAFS 162101Z AUTO 00000KT 8SM -SN BKN018 OVC028 M04/M06 A2916

Decode

TAF

Not found

Departure Runways

ID Width Length Bearing (true) Bearing (mag) Surface Threshold Offset Overrun Length
04 75 ft / 23 m 3,990 ft / 1,216 m 63.29° 48.45° Gravel 0 ft / 0 m 0 ft / 0 m
22 75 ft / 23 m 3,990 ft / 1,216 m 243.31° 228.47° Gravel 0 ft / 0 m 0 ft / 0 m

PAMC

Details ICAO PAMC (MCG)
Name MC GRATH
Region USA (Alaska)
Timezone America/Anchorage (UTC-9.0)
Stats Elevation 338 ft / 103 m (AMSL)
Location 62.954791° -155.606573°
Runways 2
Magnetic Variation 14.332° E

METAR

PAMC 162053Z AUTO 00000KT 10SM BKN008 OVC021 M04/M06 A2916 RMK AO2 SLP880 60000 T10391061 51008 TSNO

Decode

TAF

TAF PAMC 161720Z 1618/1718 14004KT 5SM -SN BR BKN012 OVC025 FM161900 VRB03KT P6SM -SHSN BKN015 BKN050 FM162200 VRB03KT P6SM SCT015 BKN050

Decode

Destination Runways

ID Width Length Bearing (true) Bearing (mag) Surface Threshold Offset Overrun Length
07 60 ft / 18 m 1,714 ft / 522 m 94.00° 79.67° Asphalt 0 ft / 0 m 0 ft / 0 m
16 100 ft / 30 m 5,923 ft / 1,805 m 178.92° 164.59° Asphalt 556 ft / 169 m 0 ft / 0 m
25 60 ft / 18 m 1,714 ft / 522 m 274.01° 259.68° Asphalt 0 ft / 0 m 0 ft / 0 m
34 100 ft / 30 m 5,923 ft / 1,805 m 358.92° 344.59° Asphalt 547 ft / 167 m 0 ft / 0 m

Approach Navaids

Runway Type Ident Frequency Range Bearing (true) Bearing (mag) Slope Elevation
16 Localiser IMCG 108.50 MHz 18 nm / 33 km 182.87° 168.54° - 338 ft / 103 m (AMSL)
16 DME IMCG 108.50 MHz 18 nm / 33 km - - - 337 ft / 103 m (AMSL)